| time (UTC) | temp F | wind direction | speed MPH | gust MPH | rain 1hr in | rain 24hr in | rain mn in | humidity % | barometer mb |
| 20260506190031 | 74 | 206 | 16.0 | 29.0 | 0.00 | 0.00 | 0.00 | 83 | 1012.6 |
| 20260506183105 | 74 | 194 | 18.0 | 27.0 | 0.00 | 0.00 | 0.00 | 82 | 1013.2 |
| 20260506164652 | 74 | 193 | 14.0 | 23.0 | 0.00 | 0.00 | 0.00 | 83 | 1014.6 |
| 20260506163023 | 73 | 194 | 14.0 | 22.0 | 0.00 | 0.00 | 0.00 | 82 | 1014.7 |
| 20260506161619 | 74 | 216 | 12.0 | 20.0 | 0.00 | 0.00 | 0.00 | 80 | 1014.8 |
| 20260506160032 | 74 | 208 | 11.0 | 19.0 | 0.00 | 0.00 | 0.00 | 80 | 1014.9 |
| 20260506154531 | 73 | 224 | 11.0 | 21.0 | 0.00 | 0.00 | 0.00 | 81 | 1014.7 |
| 20260506151655 | 73 | 211 | 14.0 | 22.0 | 0.00 | 0.00 | 0.00 | 82 | 1015.1 |
| 20260506143027 | 72 | 206 | 10.0 | 16.0 | 0.00 | 0.00 | 0.00 | 83 | 1015.1 |
| 20260506134544 | 72 | 203 | 11.0 | 16.0 | 0.00 | 0.00 | 0.00 | 81 | 1014.9 |
| 20260506133059 | 73 | 186 | 11.0 | 20.0 | 0.00 | 0.00 | 0.00 | 78 | 1014.8 |
| 20260506121637 | 70 | 183 | 12.0 | 20.0 | 0.00 | 0.00 | 0.00 | 78 | 1015.0 |
| 20260506104617 | 67 | 190 | 8.0 | 15.0 | 0.00 | 0.00 | 0.00 | 78 | 1015.0 |
| 20260506100045 | 66 | 206 | 9.0 | 16.0 | 0.00 | 0.00 | 0.00 | 82 | 1015.0 |
| 20260506093148 | 66 | 210 | 6.0 | 13.0 | 0.00 | 0.00 | 0.00 | 83 | 1015.2 |
| 20260506081638 | 67 | 190 | 9.0 | 16.0 | 0.00 | 0.00 | 0.00 | 81 | 1015.0 |
| 20260506070141 | 68 | 207 | 9.0 | 14.0 | 0.00 | 0.00 | 0.00 | 82 | 1015.2 |
| 20260506044530 | 68 | 171 | 9.0 | 21.0 | 0.00 | 0.00 | 0.00 | 77 | 1016.2 |
| 20260506043102 | 68 | 179 | 11.0 | 23.0 | 0.00 | 0.00 | 0.00 | 77 | 1016.4 |
| 20260506041555 | 68 | 161 | 11.0 | 22.0 | 0.00 | 0.00 | 0.00 | 77 | 1016.4 |
| 20260506040129 | 68 | 186 | 11.0 | 21.0 | 0.00 | 0.00 | 0.00 | 76 | 1016.4 |
| 20260506033135 | 68 | 200 | 12.0 | 24.0 | 0.00 | 0.00 | 0.00 | 77 | 1016.4 |
| 20260506021700 | 68 | 197 | 12.0 | 23.0 | 0.00 | 0.00 | 0.00 | 76 | 1016.8 |
| 20260506020021 | 68 | 183 | 11.0 | 23.0 | 0.00 | 0.00 | 0.00 | 77 | 1016.8 |
| 20260506013152 | 68 | 175 | 13.0 | 22.0 | 0.00 | 0.00 | 0.00 | 75 | 1016.7 |
| 20260506010118 | 69 | 194 | 15.0 | 30.0 | 0.00 | 0.00 | 0.00 | 77 | 1016.5 |
| 20260505234513 | 69 | 195 | 17.0 | 28.0 | 0.00 | 0.00 | 0.00 | 78 | 1015.7 |
| 20260505220040 | 70 | 213 | 11.0 | 20.0 | 0.00 | 0.00 | 0.00 | 79 | 1015.7 |
| 20260505211657 | 71 | 201 | 13.0 | 21.0 | 0.00 | 0.00 | 0.00 | 77 | 1015.4 |